sensor_id;sensor_type;location;lat;lon;timestamp;P1;durP1;ratioP1;P2;durP2;ratioP2
7843;SDS011;3967;48.702;9.326;2023-04-24T00:01:05;0.50;;;0.30;;
7843;SDS011;3967;48.702;9.326;2023-04-24T00:03:34;1.80;;;0.40;;
7843;SDS011;3967;48.702;9.326;2023-04-24T00:06:01;1.07;;;0.40;;
7843;SDS011;3967;48.702;9.326;2023-04-24T00:08:28;0.97;;;0.40;;
7843;SDS011;3967;48.702;9.326;2023-04-24T00:10:55;0.63;;;0.63;;
7843;SDS011;3967;48.702;9.326;2023-04-24T00:13:22;1.30;;;0.40;;
7843;SDS011;3967;48.702;9.326;2023-04-24T00:15:49;2.20;;;0.90;;
7843;SDS011;3967;48.702;9.326;2023-04-24T00:18:16;0.80;;;0.40;;
7843;SDS011;3967;48.702;9.326;2023-04-24T00:20:43;1.07;;;0.43;;
7843;SDS011;3967;48.702;9.326;2023-04-24T00:23:10;1.07;;;0.50;;
7843;SDS011;3967;48.702;9.326;2023-04-24T00:25:36;0.50;;;0.43;;
7843;SDS011;3967;48.702;9.326;2023-04-24T00:28:03;0.40;;;0.40;;
7843;SDS011;3967;48.702;9.326;2023-04-24T00:30:30;0.57;;;0.50;;
7843;SDS011;3967;48.702;9.326;2023-04-24T00:32:57;0.93;;;0.27;;
7843;SDS011;3967;48.702;9.326;2023-04-24T00:35:24;0.40;;;0.40;;
7843;SDS011;3967;48.702;9.326;2023-04-24T00:37:51;1.07;;;0.50;;
7843;SDS011;3967;48.702;9.326;2023-04-24T00:40:17;0.97;;;0.30;;
7843;SDS011;3967;48.702;9.326;2023-04-24T00:42:44;1.03;;;0.47;;
7843;SDS011;3967;48.702;9.326;2023-04-24T00:45:11;0.93;;;0.50;;
7843;SDS011;3967;48.702;9.326;2023-04-24T00:47:39;1.33;;;0.40;;
7843;SDS011;3967;48.702;9.326;2023-04-24T00:50:06;0.90;;;0.30;;
7843;SDS011;3967;48.702;9.326;2023-04-24T00:52:34;1.30;;;0.40;;
7843;SDS011;3967;48.702;9.326;2023-04-24T00:55:00;1.37;;;0.40;;
7843;SDS011;3967;48.702;9.326;2023-04-24T00:57:27;0.33;;;0.30;;
7843;SDS011;3967;48.702;9.326;2023-04-24T00:59:54;0.50;;;0.20;;
7843;SDS011;3967;48.702;9.326;2023-04-24T01:02:21;0.93;;;0.40;;
7843;SDS011;3967;48.702;9.326;2023-04-24T01:04:50;1.33;;;0.40;;
7843;SDS011;3967;48.702;9.326;2023-04-24T01:07:20;2.03;;;0.50;;
7843;SDS011;3967;48.702;9.326;2023-04-24T01:09:47;1.17;;;0.50;;
7843;SDS011;3967;48.702;9.326;2023-04-24T01:12:17;0.77;;;0.40;;
7843;SDS011;3967;48.702;9.326;2023-04-24T01:14:44;1.27;;;0.30;;
7843;SDS011;3967;48.702;9.326;2023-04-24T01:17:11;1.20;;;0.47;;
7843;SDS011;3967;48.702;9.326;2023-04-24T01:19:38;1.00;;;0.40;;
7843;SDS011;3967;48.702;9.326;2023-04-24T01:22:13;0.30;;;0.30;;
7843;SDS011;3967;48.702;9.326;2023-04-24T01:24:41;0.40;;;0.30;;
7843;SDS011;3967;48.702;9.326;2023-04-24T01:27:09;0.60;;;0.40;;
7843;SDS011;3967;48.702;9.326;2023-04-24T01:29:36;0.60;;;0.30;;
7843;SDS011;3967;48.702;9.326;2023-04-24T01:32:04;0.53;;;0.33;;
7843;SDS011;3967;48.702;9.326;2023-04-24T01:34:31;0.60;;;0.30;;
7843;SDS011;3967;48.702;9.326;2023-04-24T01:36:58;2.20;;;0.40;;
7843;SDS011;3967;48.702;9.326;2023-04-24T01:39:25;0.60;;;0.30;;
7843;SDS011;3967;48.702;9.326;2023-04-24T01:41:55;0.87;;;0.40;;
7843;SDS011;3967;48.702;9.326;2023-04-24T01:44:22;2.50;;;0.73;;
7843;SDS011;3967;48.702;9.326;2023-04-24T01:46:49;0.77;;;0.33;;
7843;SDS011;3967;48.702;9.326;2023-04-24T01:49:16;0.57;;;0.50;;
7843;SDS011;3967;48.702;9.326;2023-04-24T01:51:43;1.63;;;0.30;;
7843;SDS011;3967;48.702;9.326;2023-04-24T01:54:10;0.50;;;0.40;;
7843;SDS011;3967;48.702;9.326;2023-04-24T01:56:38;0.60;;;0.40;;
7843;SDS011;3967;48.702;9.326;2023-04-24T01:59:07;1.30;;;0.40;;
7843;SDS011;3967;48.702;9.326;2023-04-24T02:01:35;1.17;;;0.50;;
7843;SDS011;3967;48.702;9.326;2023-04-24T02:04:02;0.70;;;0.40;;
7843;SDS011;3967;48.702;9.326;2023-04-24T02:06:30;0.33;;;0.30;;
7843;SDS011;3967;48.702;9.326;2023-04-24T02:08:58;0.90;;;0.33;;
7843;SDS011;3967;48.702;9.326;2023-04-24T02:11:25;1.60;;;0.40;;
7843;SDS011;3967;48.702;9.326;2023-04-24T02:13:52;0.50;;;0.47;;
7843;SDS011;3967;48.702;9.326;2023-04-24T02:16:20;0.60;;;0.40;;
7843;SDS011;3967;48.702;9.326;2023-04-24T02:18:47;0.60;;;0.40;;
7843;SDS011;3967;48.702;9.326;2023-04-24T02:21:14;0.83;;;0.50;;
7843;SDS011;3967;48.702;9.326;2023-04-24T02:23:40;0.47;;;0.40;;
7843;SDS011;3967;48.702;9.326;2023-04-24T02:26:07;1.50;;;0.30;;
7843;SDS011;3967;48.702;9.326;2023-04-24T02:28:34;1.67;;;0.37;;
7843;SDS011;3967;48.702;9.326;2023-04-24T02:31:01;1.80;;;0.30;;
7843;SDS011;3967;48.702;9.326;2023-04-24T02:33:28;1.97;;;0.30;;
7843;SDS011;3967;48.702;9.326;2023-04-24T02:35:54;0.50;;;0.40;;
7843;SDS011;3967;48.702;9.326;2023-04-24T02:38:21;1.10;;;0.60;;
7843;SDS011;3967;48.702;9.326;2023-04-24T02:40:48;0.63;;;0.30;;
7843;SDS011;3967;48.702;9.326;2023-04-24T02:43:15;0.73;;;0.30;;
7843;SDS011;3967;48.702;9.326;2023-04-24T02:45:41;0.67;;;0.40;;
7843;SDS011;3967;48.702;9.326;2023-04-24T02:48:08;0.37;;;0.30;;
7843;SDS011;3967;48.702;9.326;2023-04-24T02:50:35;1.43;;;0.40;;
7843;SDS011;3967;48.702;9.326;2023-04-24T02:53:01;1.30;;;0.40;;
7843;SDS011;3967;48.702;9.326;2023-04-24T02:55:28;0.60;;;0.40;;
7843;SDS011;3967;48.702;9.326;2023-04-24T02:57:55;0.40;;;0.40;;
7843;SDS011;3967;48.702;9.326;2023-04-24T03:00:22;0.40;;;0.40;;
7843;SDS011;3967;48.702;9.326;2023-04-24T03:02:49;0.33;;;0.30;;
7843;SDS011;3967;48.702;9.326;2023-04-24T03:05:16;0.70;;;0.30;;
7843;SDS011;3967;48.702;9.326;2023-04-24T03:07:42;0.97;;;0.30;;
7843;SDS011;3967;48.702;9.326;2023-04-24T03:10:09;1.70;;;0.40;;
7843;SDS011;3967;48.702;9.326;2023-04-24T03:12:36;0.40;;;0.33;;
7843;SDS011;3967;48.702;9.326;2023-04-24T03:15:03;0.20;;;0.20;;
7843;SDS011;3967;48.702;9.326;2023-04-24T03:17:30;0.70;;;0.20;;
7843;SDS011;3967;48.702;9.326;2023-04-24T03:19:56;0.40;;;0.40;;
7843;SDS011;3967;48.702;9.326;2023-04-24T03:22:23;0.30;;;0.30;;
7843;SDS011;3967;48.702;9.326;2023-04-24T03:24:50;0.50;;;0.30;;
7843;SDS011;3967;48.702;9.326;2023-04-24T03:27:17;1.40;;;0.30;;
7843;SDS011;3967;48.702;9.326;2023-04-24T03:29:43;1.37;;;0.40;;
7843;SDS011;3967;48.702;9.326;2023-04-24T03:32:10;0.87;;;0.30;;
7843;SDS011;3967;48.702;9.326;2023-04-24T03:34:37;0.50;;;0.40;;
7843;SDS011;3967;48.702;9.326;2023-04-24T03:37:03;1.03;;;0.27;;
7843;SDS011;3967;48.702;9.326;2023-04-24T03:39:30;1.17;;;0.47;;
7843;SDS011;3967;48.702;9.326;2023-04-24T03:41:57;1.27;;;0.50;;
7843;SDS011;3967;48.702;9.326;2023-04-24T03:44:23;1.30;;;0.60;;
7843;SDS011;3967;48.702;9.326;2023-04-24T03:46:50;2.60;;;0.40;;
7843;SDS011;3967;48.702;9.326;2023-04-24T03:49:16;0.80;;;0.50;;
7843;SDS011;3967;48.702;9.326;2023-04-24T03:51:43;1.70;;;0.50;;
7843;SDS011;3967;48.702;9.326;2023-04-24T03:54:10;1.93;;;0.53;;
7843;SDS011;3967;48.702;9.326;2023-04-24T03:56:37;0.93;;;0.50;;
7843;SDS011;3967;48.702;9.326;2023-04-24T03:59:03;0.80;;;0.50;;
7843;SDS011;3967;48.702;9.326;2023-04-24T04:01:30;2.87;;;0.63;;
7843;SDS011;3967;48.702;9.326;2023-04-24T04:03:57;2.03;;;0.50;;
7843;SDS011;3967;48.702;9.326;2023-04-24T04:06:24;1.07;;;0.40;;
7843;SDS011;3967;48.702;9.326;2023-04-24T04:08:50;1.60;;;0.60;;
7843;SDS011;3967;48.702;9.326;2023-04-24T04:11:17;3.43;;;1.27;;
7843;SDS011;3967;48.702;9.326;2023-04-24T04:13:44;1.07;;;0.67;;
7843;SDS011;3967;48.702;9.326;2023-04-24T04:16:11;1.60;;;0.40;;
7843;SDS011;3967;48.702;9.326;2023-04-24T04:18:38;1.37;;;0.57;;
7843;SDS011;3967;48.702;9.326;2023-04-24T04:21:05;2.13;;;0.50;;
7843;SDS011;3967;48.702;9.326;2023-04-24T04:23:32;2.00;;;0.50;;
7843;SDS011;3967;48.702;9.326;2023-04-24T04:25:58;0.60;;;0.40;;
7843;SDS011;3967;48.702;9.326;2023-04-24T04:28:25;2.83;;;0.50;;
7843;SDS011;3967;48.702;9.326;2023-04-24T04:30:52;1.47;;;0.40;;
7843;SDS011;3967;48.702;9.326;2023-04-24T04:33:23;0.53;;;0.30;;
7843;SDS011;3967;48.702;9.326;2023-04-24T04:35:51;0.80;;;0.43;;
7843;SDS011;3967;48.702;9.326;2023-04-24T04:38:18;3.67;;;0.50;;
7843;SDS011;3967;48.702;9.326;2023-04-24T04:40:46;1.37;;;0.50;;
7843;SDS011;3967;48.702;9.326;2023-04-24T04:43:12;0.40;;;0.40;;
7843;SDS011;3967;48.702;9.326;2023-04-24T04:45:41;0.50;;;0.47;;
7843;SDS011;3967;48.702;9.326;2023-04-24T04:48:09;0.50;;;0.40;;
7843;SDS011;3967;48.702;9.326;2023-04-24T04:50:38;0.93;;;0.53;;
7843;SDS011;3967;48.702;9.326;2023-04-24T04:53:05;0.50;;;0.50;;
7843;SDS011;3967;48.702;9.326;2023-04-24T04:55:32;0.50;;;0.50;;
7843;SDS011;3967;48.702;9.326;2023-04-24T04:57:59;2.03;;;0.80;;
7843;SDS011;3967;48.702;9.326;2023-04-24T05:00:26;1.00;;;0.77;;
7843;SDS011;3967;48.702;9.326;2023-04-24T05:02:55;0.87;;;0.77;;
7843;SDS011;3967;48.702;9.326;2023-04-24T05:05:38;1.70;;;0.60;;
7843;SDS011;3967;48.702;9.326;2023-04-24T05:08:07;0.97;;;0.70;;
7843;SDS011;3967;48.702;9.326;2023-04-24T05:10:51;0.67;;;0.67;;
7843;SDS011;3967;48.702;9.326;2023-04-24T05:13:18;1.17;;;0.83;;
7843;SDS011;3967;48.702;9.326;2023-04-24T05:16:01;2.27;;;0.90;;
7843;SDS011;3967;48.702;9.326;2023-04-24T05:18:28;2.73;;;0.70;;
7843;SDS011;3967;48.702;9.326;2023-04-24T05:20:54;0.57;;;0.57;;
7843;SDS011;3967;48.702;9.326;2023-04-24T05:23:21;1.10;;;0.80;;
7843;SDS011;3967;48.702;9.326;2023-04-24T05:25:48;1.50;;;1.20;;
7843;SDS011;3967;48.702;9.326;2023-04-24T05:28:15;4.03;;;1.43;;
7843;SDS011;3967;48.702;9.326;2023-04-24T05:30:42;1.17;;;1.00;;
7843;SDS011;3967;48.702;9.326;2023-04-24T05:33:08;1.37;;;1.10;;
7843;SDS011;3967;48.702;9.326;2023-04-24T05:35:36;1.33;;;1.00;;
7843;SDS011;3967;48.702;9.326;2023-04-24T05:38:02;2.57;;;1.13;;
7843;SDS011;3967;48.702;9.326;2023-04-24T05:40:29;1.63;;;0.97;;
7843;SDS011;3967;48.702;9.326;2023-04-24T05:42:56;1.50;;;0.90;;
7843;SDS011;3967;48.702;9.326;2023-04-24T05:45:23;1.60;;;1.00;;
7843;SDS011;3967;48.702;9.326;2023-04-24T05:47:49;1.07;;;1.07;;
7843;SDS011;3967;48.702;9.326;2023-04-24T05:50:18;1.10;;;0.80;;
7843;SDS011;3967;48.702;9.326;2023-04-24T05:52:45;3.53;;;1.20;;
7843;SDS011;3967;48.702;9.326;2023-04-24T05:55:12;1.87;;;1.60;;
7843;SDS011;3967;48.702;9.326;2023-04-24T05:57:39;2.77;;;1.70;;
7843;SDS011;3967;48.702;9.326;2023-04-24T06:00:06;2.43;;;1.57;;
7843;SDS011;3967;48.702;9.326;2023-04-24T06:02:34;2.23;;;1.47;;
7843;SDS011;3967;48.702;9.326;2023-04-24T06:05:01;3.23;;;1.77;;
7843;SDS011;3967;48.702;9.326;2023-04-24T06:07:28;2.67;;;1.20;;
7843;SDS011;3967;48.702;9.326;2023-04-24T06:09:55;3.53;;;1.60;;
7843;SDS011;3967;48.702;9.326;2023-04-24T06:12:23;4.70;;;1.73;;
7843;SDS011;3967;48.702;9.326;2023-04-24T06:14:49;1.97;;;1.33;;
7843;SDS011;3967;48.702;9.326;2023-04-24T06:17:16;2.07;;;1.40;;
7843;SDS011;3967;48.702;9.326;2023-04-24T06:19:43;1.50;;;1.40;;
7843;SDS011;3967;48.702;9.326;2023-04-24T06:22:10;2.20;;;1.23;;
7843;SDS011;3967;48.702;9.326;2023-04-24T06:24:37;1.87;;;1.60;;
7843;SDS011;3967;48.702;9.326;2023-04-24T06:27:04;1.77;;;1.37;;
7843;SDS011;3967;48.702;9.326;2023-04-24T06:29:31;2.20;;;1.30;;
7843;SDS011;3967;48.702;9.326;2023-04-24T06:31:59;2.10;;;1.10;;
7843;SDS011;3967;48.702;9.326;2023-04-24T06:34:26;1.40;;;1.30;;
7843;SDS011;3967;48.702;9.326;2023-04-24T06:36:53;1.37;;;1.00;;
7843;SDS011;3967;48.702;9.326;2023-04-24T06:39:21;1.43;;;1.20;;
7843;SDS011;3967;48.702;9.326;2023-04-24T06:41:47;1.23;;;1.07;;
7843;SDS011;3967;48.702;9.326;2023-04-24T06:44:14;1.50;;;0.93;;
7843;SDS011;3967;48.702;9.326;2023-04-24T06:46:41;1.73;;;1.50;;
7843;SDS011;3967;48.702;9.326;2023-04-24T06:49:08;1.80;;;1.30;;
7843;SDS011;3967;48.702;9.326;2023-04-24T06:51:34;2.03;;;1.43;;
7843;SDS011;3967;48.702;9.326;2023-04-24T06:54:01;1.50;;;1.40;;
7843;SDS011;3967;48.702;9.326;2023-04-24T06:56:28;1.77;;;0.80;;
7843;SDS011;3967;48.702;9.326;2023-04-24T06:58:55;1.03;;;0.80;;
7843;SDS011;3967;48.702;9.326;2023-04-24T07:01:22;0.60;;;0.60;;
7843;SDS011;3967;48.702;9.326;2023-04-24T07:03:49;0.70;;;0.70;;
7843;SDS011;3967;48.702;9.326;2023-04-24T07:06:16;2.10;;;0.60;;
7843;SDS011;3967;48.702;9.326;2023-04-24T07:08:44;2.20;;;1.00;;
7843;SDS011;3967;48.702;9.326;2023-04-24T07:11:12;2.27;;;0.70;;
7843;SDS011;3967;48.702;9.326;2023-04-24T07:13:39;1.00;;;0.60;;
7843;SDS011;3967;48.702;9.326;2023-04-24T07:16:08;0.90;;;0.90;;
7843;SDS011;3967;48.702;9.326;2023-04-24T07:18:35;0.70;;;0.70;;
7843;SDS011;3967;48.702;9.326;2023-04-24T07:21:03;0.70;;;0.70;;
7843;SDS011;3967;48.702;9.326;2023-04-24T07:23:30;1.10;;;0.90;;
7843;SDS011;3967;48.702;9.326;2023-04-24T07:25:57;0.97;;;0.97;;
7843;SDS011;3967;48.702;9.326;2023-04-24T07:28:24;1.03;;;0.87;;
7843;SDS011;3967;48.702;9.326;2023-04-24T07:30:51;2.03;;;1.10;;
7843;SDS011;3967;48.702;9.326;2023-04-24T07:33:20;2.13;;;1.00;;
7843;SDS011;3967;48.702;9.326;2023-04-24T07:35:47;2.00;;;1.13;;
7843;SDS011;3967;48.702;9.326;2023-04-24T07:38:14;2.93;;;1.23;;
7843;SDS011;3967;48.702;9.326;2023-04-24T07:40:41;1.37;;;0.87;;
7843;SDS011;3967;48.702;9.326;2023-04-24T07:43:08;2.60;;;0.97;;
7843;SDS011;3967;48.702;9.326;2023-04-24T07:45:34;0.97;;;0.70;;
7843;SDS011;3967;48.702;9.326;2023-04-24T07:48:03;0.70;;;0.70;;
7843;SDS011;3967;48.702;9.326;2023-04-24T07:50:30;0.70;;;0.70;;
7843;SDS011;3967;48.702;9.326;2023-04-24T07:52:57;1.20;;;1.10;;
7843;SDS011;3967;48.702;9.326;2023-04-24T07:55:24;1.07;;;0.90;;
7843;SDS011;3967;48.702;9.326;2023-04-24T07:57:53;2.00;;;0.87;;
7843;SDS011;3967;48.702;9.326;2023-04-24T08:00:20;0.80;;;0.80;;
7843;SDS011;3967;48.702;9.326;2023-04-24T08:02:47;0.63;;;0.57;;
7843;SDS011;3967;48.702;9.326;2023-04-24T08:05:14;0.70;;;0.70;;
7843;SDS011;3967;48.702;9.326;2023-04-24T08:07:41;0.77;;;0.77;;
7843;SDS011;3967;48.702;9.326;2023-04-24T08:10:12;1.50;;;0.70;;
7843;SDS011;3967;48.702;9.326;2023-04-24T08:12:39;0.90;;;0.83;;
7843;SDS011;3967;48.702;9.326;2023-04-24T08:15:06;0.90;;;0.70;;
7843;SDS011;3967;48.702;9.326;2023-04-24T08:17:34;0.80;;;0.80;;
7843;SDS011;3967;48.702;9.326;2023-04-24T08:20:02;1.37;;;0.80;;
7843;SDS011;3967;48.702;9.326;2023-04-24T08:22:31;0.80;;;0.80;;
7843;SDS011;3967;48.702;9.326;2023-04-24T08:24:59;0.80;;;0.80;;
7843;SDS011;3967;48.702;9.326;2023-04-24T08:27:26;0.77;;;0.63;;
7843;SDS011;3967;48.702;9.326;2023-04-24T08:29:54;0.60;;;0.60;;
7843;SDS011;3967;48.702;9.326;2023-04-24T08:32:20;0.90;;;0.70;;
7843;SDS011;3967;48.702;9.326;2023-04-24T08:34:47;1.17;;;0.70;;
7843;SDS011;3967;48.702;9.326;2023-04-24T08:37:15;0.90;;;0.67;;
7843;SDS011;3967;48.702;9.326;2023-04-24T08:39:41;0.90;;;0.90;;
7843;SDS011;3967;48.702;9.326;2023-04-24T08:42:09;1.60;;;0.70;;
7843;SDS011;3967;48.702;9.326;2023-04-24T08:44:38;1.00;;;0.83;;
7843;SDS011;3967;48.702;9.326;2023-04-24T08:47:05;1.27;;;0.87;;
7843;SDS011;3967;48.702;9.326;2023-04-24T08:49:34;1.33;;;0.80;;
7843;SDS011;3967;48.702;9.326;2023-04-24T08:52:02;1.03;;;0.90;;
7843;SDS011;3967;48.702;9.326;2023-04-24T08:54:31;1.07;;;0.70;;
7843;SDS011;3967;48.702;9.326;2023-04-24T08:57:00;2.33;;;0.83;;
7843;SDS011;3967;48.702;9.326;2023-04-24T08:59:32;1.00;;;1.00;;
7843;SDS011;3967;48.702;9.326;2023-04-24T09:01:59;0.80;;;0.80;;
7843;SDS011;3967;48.702;9.326;2023-04-24T09:04:27;1.67;;;0.70;;
7843;SDS011;3967;48.702;9.326;2023-04-24T09:06:57;2.47;;;0.90;;
7843;SDS011;3967;48.702;9.326;2023-04-24T09:09:24;0.93;;;0.63;;
7843;SDS011;3967;48.702;9.326;2023-04-24T09:11:52;1.00;;;0.70;;
7843;SDS011;3967;48.702;9.326;2023-04-24T09:14:21;1.00;;;0.80;;
7843;SDS011;3967;48.702;9.326;2023-04-24T09:16:50;2.00;;;0.90;;
7843;SDS011;3967;48.702;9.326;2023-04-24T09:19:17;3.17;;;0.87;;
7843;SDS011;3967;48.702;9.326;2023-04-24T09:21:45;3.30;;;0.80;;
7843;SDS011;3967;48.702;9.326;2023-04-24T09:24:19;0.70;;;0.70;;
7843;SDS011;3967;48.702;9.326;2023-04-24T09:26:49;1.00;;;0.90;;
7843;SDS011;3967;48.702;9.326;2023-04-24T09:29:23;0.87;;;0.80;;
7843;SDS011;3967;48.702;9.326;2023-04-24T09:31:51;1.70;;;0.80;;
7843;SDS011;3967;48.702;9.326;2023-04-24T09:34:25;1.87;;;0.90;;
7843;SDS011;3967;48.702;9.326;2023-04-24T09:36:53;1.17;;;0.80;;
7843;SDS011;3967;48.702;9.326;2023-04-24T09:39:20;0.80;;;0.80;;
7843;SDS011;3967;48.702;9.326;2023-04-24T09:41:48;2.63;;;0.60;;
7843;SDS011;3967;48.702;9.326;2023-04-24T09:44:16;1.77;;;0.70;;
7843;SDS011;3967;48.702;9.326;2023-04-24T09:46:45;1.30;;;0.57;;
7843;SDS011;3967;48.702;9.326;2023-04-24T09:49:21;0.63;;;0.60;;
7843;SDS011;3967;48.702;9.326;2023-04-24T09:51:50;0.50;;;0.50;;
7843;SDS011;3967;48.702;9.326;2023-04-24T09:54:18;0.77;;;0.50;;
7843;SDS011;3967;48.702;9.326;2023-04-24T09:56:47;3.83;;;0.60;;
7843;SDS011;3967;48.702;9.326;2023-04-24T09:59:16;0.50;;;0.50;;
7843;SDS011;3967;48.702;9.326;2023-04-24T10:01:45;1.30;;;0.50;;
7843;SDS011;3967;48.702;9.326;2023-04-24T10:04:19;1.80;;;0.60;;
7843;SDS011;3967;48.702;9.326;2023-04-24T10:06:47;1.77;;;0.60;;
7843;SDS011;3967;48.702;9.326;2023-04-24T10:09:17;0.87;;;0.40;;
7843;SDS011;3967;48.702;9.326;2023-04-24T10:11:46;0.40;;;0.40;;
7843;SDS011;3967;48.702;9.326;2023-04-24T10:14:15;1.53;;;0.40;;
7843;SDS011;3967;48.702;9.326;2023-04-24T10:16:44;1.03;;;0.50;;
7843;SDS011;3967;48.702;9.326;2023-04-24T10:19:13;1.20;;;0.60;;
7843;SDS011;3967;48.702;9.326;2023-04-24T10:21:41;1.83;;;0.80;;
7843;SDS011;3967;48.702;9.326;2023-04-24T10:24:12;1.43;;;0.50;;
7843;SDS011;3967;48.702;9.326;2023-04-24T10:26:40;0.40;;;0.37;;
7843;SDS011;3967;48.702;9.326;2023-04-24T10:29:08;2.53;;;0.40;;
7843;SDS011;3967;48.702;9.326;2023-04-24T10:31:38;0.40;;;0.40;;
7843;SDS011;3967;48.702;9.326;2023-04-24T10:34:06;0.67;;;0.40;;
7843;SDS011;3967;48.702;9.326;2023-04-24T10:36:34;0.60;;;0.50;;
7843;SDS011;3967;48.702;9.326;2023-04-24T10:39:06;0.97;;;0.60;;
7843;SDS011;3967;48.702;9.326;2023-04-24T10:41:37;0.30;;;0.30;;
7843;SDS011;3967;48.702;9.326;2023-04-24T10:44:08;1.80;;;0.70;;
7843;SDS011;3967;48.702;9.326;2023-04-24T10:46:36;0.50;;;0.50;;
7843;SDS011;3967;48.702;9.326;2023-04-24T10:49:07;0.60;;;0.50;;
7843;SDS011;3967;48.702;9.326;2023-04-24T10:56:52;0.40;;;0.40;;
7843;SDS011;3967;48.702;9.326;2023-04-24T10:59:39;1.63;;;0.57;;
7843;SDS011;3967;48.702;9.326;2023-04-24T11:02:06;0.77;;;0.40;;
7843;SDS011;3967;48.702;9.326;2023-04-24T11:04:34;0.73;;;0.60;;
7843;SDS011;3967;48.702;9.326;2023-04-24T11:07:04;0.67;;;0.50;;
7843;SDS011;3967;48.702;9.326;2023-04-24T11:09:31;0.60;;;0.30;;
7843;SDS011;3967;48.702;9.326;2023-04-24T11:12:02;0.70;;;0.30;;
7843;SDS011;3967;48.702;9.326;2023-04-24T11:17:32;0.53;;;0.50;;
7843;SDS011;3967;48.702;9.326;2023-04-24T11:20:09;1.07;;;0.47;;
7843;SDS011;3967;48.702;9.326;2023-04-24T11:22:53;0.87;;;0.60;;
7843;SDS011;3967;48.702;9.326;2023-04-24T11:25:21;0.57;;;0.50;;
7843;SDS011;3967;48.702;9.326;2023-04-24T11:27:49;0.77;;;0.40;;
7843;SDS011;3967;48.702;9.326;2023-04-24T11:30:20;0.97;;;0.43;;
7843;SDS011;3967;48.702;9.326;2023-04-24T11:32:47;0.40;;;0.40;;
7843;SDS011;3967;48.702;9.326;2023-04-24T11:35:17;1.70;;;0.47;;
7843;SDS011;3967;48.702;9.326;2023-04-24T11:37:44;0.40;;;0.37;;
7843;SDS011;3967;48.702;9.326;2023-04-24T11:40:34;1.40;;;0.90;;
7843;SDS011;3967;48.702;9.326;2023-04-24T11:43:03;1.97;;;0.80;;
7843;SDS011;3967;48.702;9.326;2023-04-24T11:45:33;0.50;;;0.50;;
7843;SDS011;3967;48.702;9.326;2023-04-24T11:48:00;0.50;;;0.50;;
7843;SDS011;3967;48.702;9.326;2023-04-24T11:50:27;1.20;;;0.53;;
7843;SDS011;3967;48.702;9.326;2023-04-24T11:52:55;0.60;;;0.60;;
7843;SDS011;3967;48.702;9.326;2023-04-24T11:55:23;1.70;;;0.43;;
7843;SDS011;3967;48.702;9.326;2023-04-24T11:57:55;0.50;;;0.50;;
7843;SDS011;3967;48.702;9.326;2023-04-24T12:00:24;0.93;;;0.53;;
7843;SDS011;3967;48.702;9.326;2023-04-24T12:03:03;0.50;;;0.50;;
7843;SDS011;3967;48.702;9.326;2023-04-24T12:05:31;0.80;;;0.50;;
7843;SDS011;3967;48.702;9.326;2023-04-24T12:07:58;0.80;;;0.60;;
7843;SDS011;3967;48.702;9.326;2023-04-24T12:10:26;1.03;;;0.60;;
7843;SDS011;3967;48.702;9.326;2023-04-24T12:12:55;0.90;;;0.70;;
7843;SDS011;3967;48.702;9.326;2023-04-24T12:15:23;1.47;;;0.40;;
7843;SDS011;3967;48.702;9.326;2023-04-24T12:17:50;2.60;;;0.60;;
7843;SDS011;3967;48.702;9.326;2023-04-24T12:20:23;0.70;;;0.60;;
7843;SDS011;3967;48.702;9.326;2023-04-24T12:22:54;0.73;;;0.40;;
7843;SDS011;3967;48.702;9.326;2023-04-24T12:25:23;0.63;;;0.60;;
7843;SDS011;3967;48.702;9.326;2023-04-24T12:30:30;0.87;;;0.60;;
7843;SDS011;3967;48.702;9.326;2023-04-24T12:32:59;0.87;;;0.63;;
7843;SDS011;3967;48.702;9.326;2023-04-24T12:35:28;0.50;;;0.50;;
7843;SDS011;3967;48.702;9.326;2023-04-24T12:38:07;0.80;;;0.60;;
7843;SDS011;3967;48.702;9.326;2023-04-24T12:40:35;0.90;;;0.60;;
7843;SDS011;3967;48.702;9.326;2023-04-24T12:43:02;1.97;;;0.70;;
7843;SDS011;3967;48.702;9.326;2023-04-24T12:45:47;1.00;;;0.90;;
7843;SDS011;3967;48.702;9.326;2023-04-24T12:48:13;0.70;;;0.70;;
7843;SDS011;3967;48.702;9.326;2023-04-24T12:50:40;1.77;;;0.70;;
7843;SDS011;3967;48.702;9.326;2023-04-24T12:53:11;0.70;;;0.60;;
7843;SDS011;3967;48.702;9.326;2023-04-24T12:55:38;0.53;;;0.47;;
7843;SDS011;3967;48.702;9.326;2023-04-24T12:58:04;0.60;;;0.50;;
7843;SDS011;3967;48.702;9.326;2023-04-24T13:00:32;3.80;;;0.80;;
7843;SDS011;3967;48.702;9.326;2023-04-24T13:02:59;0.50;;;0.50;;
7843;SDS011;3967;48.702;9.326;2023-04-24T13:05:27;0.97;;;0.47;;
7843;SDS011;3967;48.702;9.326;2023-04-24T13:07:53;0.63;;;0.50;;
7843;SDS011;3967;48.702;9.326;2023-04-24T13:10:20;0.60;;;0.60;;
7843;SDS011;3967;48.702;9.326;2023-04-24T13:12:47;0.70;;;0.67;;
7843;SDS011;3967;48.702;9.326;2023-04-24T13:15:14;1.27;;;0.80;;
7843;SDS011;3967;48.702;9.326;2023-04-24T13:17:41;0.70;;;0.50;;
7843;SDS011;3967;48.702;9.326;2023-04-24T13:20:08;0.57;;;0.57;;
7843;SDS011;3967;48.702;9.326;2023-04-24T13:22:35;1.80;;;0.70;;
7843;SDS011;3967;48.702;9.326;2023-04-24T13:25:02;1.37;;;1.00;;
7843;SDS011;3967;48.702;9.326;2023-04-24T13:27:32;2.97;;;0.97;;
7843;SDS011;3967;48.702;9.326;2023-04-24T13:29:59;0.60;;;0.60;;
7843;SDS011;3967;48.702;9.326;2023-04-24T13:32:26;0.60;;;0.60;;
7843;SDS011;3967;48.702;9.326;2023-04-24T13:34:53;1.00;;;0.90;;
7843;SDS011;3967;48.702;9.326;2023-04-24T13:37:20;0.67;;;0.63;;
7843;SDS011;3967;48.702;9.326;2023-04-24T13:39:48;1.40;;;0.70;;
7843;SDS011;3967;48.702;9.326;2023-04-24T13:42:15;1.53;;;0.70;;
7843;SDS011;3967;48.702;9.326;2023-04-24T13:44:41;0.70;;;0.70;;
7843;SDS011;3967;48.702;9.326;2023-04-24T13:47:08;0.50;;;0.50;;
7843;SDS011;3967;48.702;9.326;2023-04-24T13:49:35;0.93;;;0.73;;
7843;SDS011;3967;48.702;9.326;2023-04-24T13:52:02;0.70;;;0.70;;
7843;SDS011;3967;48.702;9.326;2023-04-24T13:54:28;1.33;;;0.67;;
7843;SDS011;3967;48.702;9.326;2023-04-24T13:56:57;1.10;;;1.00;;
7843;SDS011;3967;48.702;9.326;2023-04-24T13:59:25;1.33;;;0.90;;
7843;SDS011;3967;48.702;9.326;2023-04-24T14:01:52;1.10;;;1.00;;
7843;SDS011;3967;48.702;9.326;2023-04-24T14:04:18;2.67;;;1.07;;
7843;SDS011;3967;48.702;9.326;2023-04-24T14:06:45;1.10;;;1.00;;
7843;SDS011;3967;48.702;9.326;2023-04-24T14:09:12;0.80;;;0.80;;
7843;SDS011;3967;48.702;9.326;2023-04-24T14:11:39;1.20;;;1.10;;
7843;SDS011;3967;48.702;9.326;2023-04-24T14:14:06;1.97;;;1.10;;
7843;SDS011;3967;48.702;9.326;2023-04-24T14:16:34;1.33;;;0.97;;
7843;SDS011;3967;48.702;9.326;2023-04-24T14:19:01;0.83;;;0.83;;
7843;SDS011;3967;48.702;9.326;2023-04-24T14:21:28;2.07;;;0.90;;
7843;SDS011;3967;48.702;9.326;2023-04-24T14:23:54;0.60;;;0.60;;
7843;SDS011;3967;48.702;9.326;2023-04-24T14:26:21;0.87;;;0.87;;
7843;SDS011;3967;48.702;9.326;2023-04-24T14:28:48;1.17;;;0.90;;
7843;SDS011;3967;48.702;9.326;2023-04-24T14:31:17;0.93;;;0.80;;
7843;SDS011;3967;48.702;9.326;2023-04-24T14:33:44;2.50;;;1.00;;
7843;SDS011;3967;48.702;9.326;2023-04-24T14:36:12;2.20;;;1.10;;
7843;SDS011;3967;48.702;9.326;2023-04-24T14:38:38;0.80;;;0.70;;
7843;SDS011;3967;48.702;9.326;2023-04-24T14:41:05;1.00;;;0.87;;
7843;SDS011;3967;48.702;9.326;2023-04-24T14:43:39;1.47;;;0.90;;
7843;SDS011;3967;48.702;9.326;2023-04-24T14:46:06;1.00;;;0.90;;
7843;SDS011;3967;48.702;9.326;2023-04-24T14:48:33;1.40;;;1.03;;
7843;SDS011;3967;48.702;9.326;2023-04-24T14:51:00;2.50;;;1.40;;
7843;SDS011;3967;48.702;9.326;2023-04-24T14:53:26;1.20;;;1.00;;
7843;SDS011;3967;48.702;9.326;2023-04-24T14:55:54;1.33;;;1.23;;
7843;SDS011;3967;48.702;9.326;2023-04-24T14:58:20;1.03;;;0.93;;
7843;SDS011;3967;48.702;9.326;2023-04-24T15:00:47;2.20;;;1.10;;
7843;SDS011;3967;48.702;9.326;2023-04-24T15:03:18;1.10;;;0.90;;
7843;SDS011;3967;48.702;9.326;2023-04-24T15:05:45;1.03;;;1.00;;
7843;SDS011;3967;48.702;9.326;2023-04-24T15:08:12;1.20;;;0.90;;
7843;SDS011;3967;48.702;9.326;2023-04-24T15:10:39;0.80;;;0.80;;
7843;SDS011;3967;48.702;9.326;2023-04-24T15:13:06;2.00;;;0.97;;
7843;SDS011;3967;48.702;9.326;2023-04-24T15:15:33;2.23;;;1.07;;
7843;SDS011;3967;48.702;9.326;2023-04-24T15:18:00;1.50;;;1.33;;
7843;SDS011;3967;48.702;9.326;2023-04-24T15:20:27;1.00;;;1.00;;
7843;SDS011;3967;48.702;9.326;2023-04-24T15:22:53;3.07;;;1.10;;
7843;SDS011;3967;48.702;9.326;2023-04-24T15:25:20;1.20;;;1.03;;
7843;SDS011;3967;48.702;9.326;2023-04-24T15:27:47;1.33;;;1.10;;
7843;SDS011;3967;48.702;9.326;2023-04-24T15:30:14;0.93;;;0.83;;